createdAt,value
2022-11-09T00:00:00.324Z,887.7
2022-11-09T00:01:00.313Z,887.7
2022-11-09T00:02:00.507Z,887.7
2022-11-09T00:03:00.373Z,887.7
2022-11-09T00:04:00.345Z,887.7
2022-11-09T00:05:00.300Z,887.7
2022-11-09T00:06:00.321Z,887.7
2022-11-09T00:07:00.443Z,887.7
2022-11-09T00:08:00.470Z,887.8
2022-11-09T00:09:04.276Z,887.7
2022-11-09T00:10:00.497Z,887.8
2022-11-09T00:11:00.487Z,887.8
2022-11-09T00:12:00.294Z,887.8
2022-11-09T00:13:00.313Z,887.8
2022-11-09T00:14:00.560Z,887.8
2022-11-09T00:15:00.300Z,887.8
2022-11-09T00:16:00.290Z,887.8
2022-11-09T00:17:00.295Z,887.8
2022-11-09T00:18:00.316Z,887.7
2022-11-09T00:19:00.293Z,887.8
2022-11-09T00:22:00.450Z,887.8
2022-11-09T00:23:00.285Z,887.8
2022-11-09T00:24:00.295Z,887.8
2022-11-09T00:25:00.298Z,887.8
2022-11-09T00:26:00.410Z,887.8
2022-11-09T00:27:00.313Z,887.8
2022-11-09T00:28:00.432Z,887.8
2022-11-09T00:29:00.314Z,887.8
2022-11-09T00:30:00.313Z,887.8
2022-11-09T00:31:00.310Z,887.8
2022-11-09T00:32:00.298Z,887.9
2022-11-09T00:33:00.301Z,887.8
2022-11-09T00:34:00.437Z,887.8
2022-11-09T00:35:00.335Z,887.8
2022-11-09T00:36:00.308Z,887.8
2022-11-09T00:37:00.384Z,887.8
2022-11-09T00:38:00.417Z,887.8
2022-11-09T00:39:00.322Z,887.8
2022-11-09T00:40:00.485Z,887.8
2022-11-09T00:41:00.445Z,887.9
2022-11-09T00:42:00.363Z,887.8
2022-11-09T00:43:00.288Z,887.8
2022-11-09T00:44:00.285Z,887.8
2022-11-09T00:45:00.302Z,887.9
2022-11-09T00:46:00.449Z,887.9
2022-11-09T00:47:00.297Z,887.9
2022-11-09T00:48:00.294Z,887.9
2022-11-09T00:49:00.295Z,887.9
2022-11-09T00:50:00.309Z,887.9
2022-11-09T00:51:00.283Z,887.9
2022-11-09T00:52:00.431Z,887.9
2022-11-09T00:53:00.306Z,887.9
2022-11-09T00:54:00.296Z,887.9
2022-11-09T00:55:00.358Z,887.9
2022-11-09T00:56:00.342Z,887.9
2022-11-09T00:57:00.357Z,887.9
2022-11-09T00:58:00.435Z,887.9
2022-11-09T00:59:00.308Z,887.9
2022-11-09T01:00:00.386Z,888.0
2022-11-09T01:01:00.353Z,888.0
2022-11-09T01:02:00.354Z,888.0
2022-11-09T01:03:00.304Z,888.0
2022-11-09T01:04:00.506Z,888.0
2022-11-09T01:05:00.292Z,888.0
2022-11-09T01:06:00.298Z,888.0
2022-11-09T01:07:00.413Z,888.0
2022-11-09T01:08:00.309Z,888.0
2022-11-09T01:09:00.318Z,888.0
2022-11-09T01:10:00.491Z,888.0
2022-11-09T01:11:00.308Z,888.0
2022-11-09T01:12:00.786Z,888.0
2022-11-09T01:13:00.314Z,888.0
2022-11-09T01:14:00.297Z,888.0
2022-11-09T01:15:00.314Z,888.0
2022-11-09T01:16:00.440Z,888.0
2022-11-09T01:17:00.306Z,888.0
2022-11-09T01:18:00.296Z,888.0
2022-11-09T01:19:00.278Z,888.0
2022-11-09T01:20:00.329Z,888.0
2022-11-09T01:21:00.299Z,888.0
2022-11-09T01:22:00.441Z,888.0
2022-11-09T01:23:00.345Z,888.0
2022-11-09T01:24:00.315Z,887.9
2022-11-09T01:25:00.353Z,887.9
2022-11-09T01:26:00.336Z,887.9
2022-11-09T01:27:00.492Z,887.9
2022-11-09T01:28:00.483Z,888.0
2022-11-09T01:29:00.305Z,888.0
2022-11-09T01:30:00.319Z,888.0
2022-11-09T01:31:00.314Z,887.9
2022-11-09T01:32:00.280Z,888.0
2022-11-09T01:33:00.282Z,888.0
2022-11-09T01:34:00.438Z,888.0
2022-11-09T01:35:00.328Z,888.0
2022-11-09T01:36:00.283Z,888.0
2022-11-09T01:37:00.278Z,888.0
2022-11-09T01:38:00.308Z,888.0
2022-11-09T01:39:00.317Z,888.0
2022-11-09T01:40:00.453Z,888.0
2022-11-09T01:41:00.329Z,888.0
2022-11-09T01:42:00.407Z,888.0
2022-11-09T01:43:00.320Z,888.0
2022-11-09T01:44:00.322Z,888.0
2022-11-09T01:45:00.331Z,888.0
2022-11-09T01:46:00.426Z,888.0
2022-11-09T01:47:00.323Z,888.0
2022-11-09T01:48:00.343Z,888.0
2022-11-09T01:49:00.296Z,888.1
2022-11-09T01:50:00.313Z,888.1
2022-11-09T01:51:00.297Z,888.1
2022-11-09T01:52:00.428Z,888.1
2022-11-09T01:53:00.320Z,888.1
2022-11-09T01:54:00.299Z,888.1
2022-11-09T01:55:00.310Z,888.1
2022-11-09T01:56:00.316Z,888.1
2022-11-09T01:57:00.347Z,888.1
2022-11-09T01:58:00.443Z,888.1
2022-11-09T01:59:00.295Z,888.1
2022-11-09T02:00:00.323Z,888.1
2022-11-09T02:01:00.411Z,888.1
2022-11-09T02:02:00.284Z,888.1
2022-11-09T02:03:00.304Z,888.1
2022-11-09T02:04:00.420Z,888.1
2022-11-09T02:05:00.281Z,888.1
2022-11-09T02:06:00.307Z,888.1
2022-11-09T02:07:00.406Z,888.1
2022-11-09T02:08:00.308Z,888.1
2022-11-09T02:09:00.318Z,888.1
2022-11-09T02:10:00.450Z,888.1
2022-11-09T02:11:00.297Z,888.1
2022-11-09T02:12:00.308Z,888.1
2022-11-09T02:13:00.354Z,888.1
2022-11-09T02:14:00.293Z,888.2
2022-11-09T02:15:00.358Z,888.2
2022-11-09T02:16:00.455Z,888.2
2022-11-09T02:17:00.316Z,888.2
2022-11-09T02:18:00.358Z,888.2
2022-11-09T02:19:00.373Z,888.2
2022-11-09T02:20:00.333Z,888.2
2022-11-09T02:21:00.299Z,888.2
2022-11-09T02:22:00.477Z,888.1
2022-11-09T02:23:00.295Z,888.1
2022-11-09T02:24:00.309Z,888.1
2022-11-09T02:25:00.314Z,888.1
2022-11-09T02:26:00.322Z,888.1
2022-11-09T02:27:00.335Z,888.1
2022-11-09T02:28:00.459Z,888.1
2022-11-09T02:29:00.292Z,888.2
2022-11-09T02:30:00.302Z,888.1
2022-11-09T02:31:00.316Z,888.2
2022-11-09T02:32:00.302Z,888.2
2022-11-09T02:33:00.308Z,888.2
2022-11-09T02:34:00.516Z,888.1
2022-11-09T02:35:00.298Z,888.2
2022-11-09T02:36:00.298Z,888.2
2022-11-09T02:37:00.302Z,888.2
2022-11-09T02:38:00.301Z,888.1
2022-11-09T02:39:00.283Z,888.1
2022-11-09T02:40:00.453Z,888.2
2022-11-09T02:41:00.310Z,888.1
2022-11-09T02:42:02.896Z,888.2
2022-11-09T02:43:00.295Z,888.2
2022-11-09T02:44:00.439Z,888.2
2022-11-09T02:45:00.331Z,888.2
2022-11-09T02:46:00.387Z,888.2
2022-11-09T02:47:00.349Z,888.2
2022-11-09T02:48:00.330Z,888.2
2022-11-09T02:49:00.297Z,888.2
2022-11-09T02:50:00.285Z,888.2
2022-11-09T02:51:00.338Z,888.2
2022-11-09T02:52:00.521Z,888.2
2022-11-09T02:53:00.374Z,888.2
2022-11-09T02:54:00.384Z,888.2
2022-11-09T02:55:00.307Z,888.2
2022-11-09T02:56:00.342Z,888.2
2022-11-09T02:57:00.375Z,888.2
2022-11-09T02:58:00.479Z,888.2
2022-11-09T02:59:00.331Z,888.2
2022-11-09T03:00:00.383Z,888.2
2022-11-09T03:01:00.477Z,888.2
2022-11-09T03:02:00.279Z,888.2
2022-11-09T03:03:00.307Z,888.2
2022-11-09T03:04:00.549Z,888.2
2022-11-09T03:05:00.290Z,888.2
2022-11-09T03:06:00.296Z,888.3
2022-11-09T03:07:00.452Z,888.3
2022-11-09T03:08:00.298Z,888.3
2022-11-09T03:09:00.299Z,888.3
2022-11-09T03:10:00.524Z,888.3
2022-11-09T03:11:00.312Z,888.3
2022-11-09T03:12:00.283Z,888.3
2022-11-09T03:13:00.300Z,888.3
2022-11-09T03:14:00.353Z,888.3
2022-11-09T03:15:00.432Z,888.3
2022-11-09T03:16:00.577Z,888.3
2022-11-09T03:17:00.307Z,888.3
2022-11-09T03:18:00.316Z,888.3
2022-11-09T03:19:00.296Z,888.3
2022-11-09T03:20:00.296Z,888.3
2022-11-09T03:21:00.315Z,888.3
2022-11-09T03:22:00.443Z,888.4
2022-11-09T03:23:00.301Z,888.3
2022-11-09T03:24:00.299Z,888.4
2022-11-09T03:25:00.355Z,888.3
2022-11-09T03:26:00.341Z,888.3
2022-11-09T03:27:00.303Z,888.3
2022-11-09T03:28:00.435Z,888.3
2022-11-09T03:29:00.279Z,888.4
2022-11-09T03:30:00.434Z,888.3
2022-11-09T03:31:00.394Z,888.3
2022-11-09T03:32:00.329Z,888.3
2022-11-09T03:33:00.316Z,888.3
2022-11-09T03:34:00.558Z,888.3
2022-11-09T03:35:00.311Z,888.3
2022-11-09T03:36:00.303Z,888.4
2022-11-09T03:37:00.277Z,888.4
2022-11-09T03:38:00.402Z,888.4
2022-11-09T03:39:00.310Z,888.4
2022-11-09T03:40:00.414Z,888.4
2022-11-09T03:41:00.307Z,888.4
2022-11-09T03:42:00.298Z,888.4
2022-11-09T03:43:00.290Z,888.4
2022-11-09T03:44:00.300Z,888.4
2022-11-09T03:45:00.408Z,888.4
2022-11-09T03:46:00.395Z,888.4
2022-11-09T03:47:00.310Z,888.4
2022-11-09T03:48:00.312Z,888.4
2022-11-09T03:49:00.307Z,888.4
2022-11-09T03:50:00.301Z,888.4
2022-11-09T03:51:00.300Z,888.4
2022-11-09T03:52:00.491Z,888.4
2022-11-09T03:53:00.309Z,888.5
2022-11-09T03:54:00.317Z,888.5
2022-11-09T03:55:00.300Z,888.4
2022-11-09T03:56:00.301Z,888.4
2022-11-09T03:57:00.311Z,888.5
2022-11-09T03:58:00.591Z,888.5
2022-11-09T03:59:00.310Z,888.5
2022-11-09T04:00:00.339Z,888.5
2022-11-09T04:01:00.344Z,888.5
2022-11-09T04:02:00.402Z,888.5
2022-11-09T04:03:00.297Z,888.5
2022-11-09T04:04:00.417Z,888.6
2022-11-09T04:05:00.355Z,888.6
2022-11-09T04:06:00.372Z,888.6
2022-11-09T04:07:00.462Z,888.6
2022-11-09T04:08:00.353Z,888.6
2022-11-09T04:09:00.362Z,888.6
2022-11-09T04:10:00.447Z,888.7
2022-11-09T04:11:00.361Z,888.7
2022-11-09T04:12:00.397Z,888.7
2022-11-09T04:13:00.340Z,888.7
2022-11-09T04:14:00.335Z,888.7
2022-11-09T04:15:00.542Z,888.7
2022-11-09T04:16:00.398Z,888.7
2022-11-09T04:17:00.306Z,888.7
2022-11-09T04:18:00.283Z,888.7
2022-11-09T04:19:00.291Z,888.7
2022-11-09T04:20:00.318Z,888.7
2022-11-09T04:21:00.312Z,888.8
2022-11-09T04:22:00.453Z,888.7
2022-11-09T04:23:00.297Z,888.8
2022-11-09T04:24:00.294Z,888.8
2022-11-09T04:25:00.308Z,888.8
2022-11-09T04:26:00.296Z,888.8
2022-11-09T04:27:00.304Z,888.8
2022-11-09T04:28:00.663Z,888.8
2022-11-09T04:29:00.298Z,888.8
2022-11-09T04:30:00.392Z,888.8
2022-11-09T04:31:00.299Z,888.9
2022-11-09T04:32:00.319Z,888.9
2022-11-09T04:33:00.299Z,888.9
2022-11-09T04:34:00.433Z,888.9
2022-11-09T04:35:00.309Z,888.9
2022-11-09T04:36:00.280Z,888.9
2022-11-09T04:37:00.299Z,888.9
2022-11-09T04:38:00.334Z,888.9
2022-11-09T04:39:00.288Z,888.9
2022-11-09T04:40:00.475Z,888.9
2022-11-09T04:41:00.339Z,888.9
2022-11-09T04:42:00.317Z,888.9
2022-11-09T04:43:00.301Z,888.9
2022-11-09T04:44:00.415Z,889.0
2022-11-09T04:45:00.499Z,889.0
2022-11-09T04:46:00.534Z,889.0
2022-11-09T04:47:00.366Z,889.0
2022-11-09T04:48:00.306Z,889.0
2022-11-09T04:49:00.359Z,889.0
2022-11-09T04:50:00.315Z,889.0
2022-11-09T04:51:00.331Z,889.1
2022-11-09T04:52:00.487Z,889.1
2022-11-09T04:53:05.280Z,889.1
2022-11-09T04:54:00.316Z,889.1
2022-11-09T04:55:00.318Z,889.1
2022-11-09T04:56:00.366Z,889.2
2022-11-09T04:57:00.312Z,889.2
2022-11-09T04:58:00.447Z,889.2
2022-11-09T04:59:00.309Z,889.2
2022-11-09T05:00:00.445Z,889.2
2022-11-09T05:01:00.398Z,889.2
2022-11-09T05:02:00.375Z,889.2
2022-11-09T05:03:00.302Z,889.2
2022-11-09T05:04:00.575Z,889.3
2022-11-09T05:05:00.285Z,889.3
2022-11-09T05:06:00.362Z,889.3
2022-11-09T05:07:00.373Z,889.3
2022-11-09T05:08:00.310Z,889.3
2022-11-09T05:09:00.288Z,889.3
2022-11-09T05:10:00.676Z,889.3
2022-11-09T05:11:00.566Z,889.3
2022-11-09T05:12:00.611Z,889.3
2022-11-09T05:13:00.663Z,889.3
2022-11-09T05:14:00.598Z,889.3
2022-11-09T05:15:00.539Z,889.3
2022-11-09T05:16:00.464Z,889.4
2022-11-09T05:17:00.768Z,889.4
2022-11-09T05:18:00.367Z,889.4
2022-11-09T05:19:00.341Z,889.4
2022-11-09T05:20:00.508Z,889.4
2022-11-09T05:21:00.316Z,889.4
2022-11-09T05:22:00.433Z,889.3
2022-11-09T05:23:00.283Z,889.3
2022-11-09T05:24:00.520Z,889.4
2022-11-09T05:25:00.311Z,889.4
2022-11-09T05:26:00.316Z,889.4
2022-11-09T05:27:00.301Z,889.4
2022-11-09T05:28:00.443Z,889.4
2022-11-09T05:29:00.296Z,889.4
2022-11-09T05:30:00.393Z,889.4
2022-11-09T05:31:00.282Z,889.4
2022-11-09T05:32:00.333Z,889.4
2022-11-09T05:33:00.336Z,889.4
2022-11-09T05:34:00.500Z,889.4
2022-11-09T05:35:00.283Z,889.4
2022-11-09T05:36:00.294Z,889.4
2022-11-09T05:37:03.549Z,889.4
2022-11-09T05:38:00.294Z,889.4
2022-11-09T05:39:00.309Z,889.4
2022-11-09T05:40:00.449Z,889.4
2022-11-09T05:41:00.295Z,889.5
2022-11-09T05:42:00.310Z,889.4
2022-11-09T05:43:00.324Z,889.4
2022-11-09T05:44:00.298Z,889.4
2022-11-09T05:45:20.972Z,889.4
2022-11-09T05:46:06.271Z,889.4
2022-11-09T05:47:00.284Z,889.4
2022-11-09T05:48:00.292Z,889.4
2022-11-09T05:49:00.298Z,889.4
2022-11-09T05:50:00.321Z,889.4
2022-11-09T05:51:00.299Z,889.4
2022-11-09T05:52:00.465Z,889.4
2022-11-09T05:53:00.350Z,889.4
2022-11-09T05:54:00.327Z,889.4
2022-11-09T05:55:00.299Z,889.4
2022-11-09T05:56:00.298Z,889.4
2022-11-09T05:57:00.293Z,889.4
2022-11-09T05:58:00.444Z,889.4
2022-11-09T05:59:00.296Z,889.4
2022-11-09T06:00:00.315Z,889.4
2022-11-09T06:01:00.430Z,889.3
2022-11-09T06:02:00.452Z,889.3
2022-11-09T06:03:00.311Z,889.4
2022-11-09T06:04:00.442Z,889.4
2022-11-09T06:05:00.303Z,889.3
2022-11-09T06:06:05.234Z,889.4
2022-11-09T06:07:00.343Z,889.4
2022-11-09T06:08:00.302Z,889.4
2022-11-09T06:09:00.296Z,889.4
2022-11-09T06:10:00.436Z,889.3
2022-11-09T06:11:00.352Z,889.3
2022-11-09T06:12:00.315Z,889.3
2022-11-09T06:13:00.364Z,889.3
2022-11-09T06:14:00.376Z,889.3
2022-11-09T06:15:00.369Z,889.3
2022-11-09T06:16:00.567Z,889.3
2022-11-09T06:17:00.285Z,889.3
2022-11-09T06:18:00.382Z,889.3
2022-11-09T06:19:00.298Z,889.3
2022-11-09T06:20:00.301Z,889.3
2022-11-09T06:21:00.310Z,889.3
2022-11-09T06:22:00.479Z,889.3
2022-11-09T06:23:03.448Z,889.3
2022-11-09T06:24:00.326Z,889.3
2022-11-09T06:25:00.292Z,889.3
2022-11-09T06:26:00.324Z,889.3
2022-11-09T06:27:00.301Z,889.3
2022-11-09T06:28:00.458Z,889.3
2022-11-09T06:29:00.317Z,889.3
2022-11-09T06:30:00.314Z,889.2
2022-11-09T06:31:00.462Z,889.3
2022-11-09T06:32:00.380Z,889.3
2022-11-09T06:33:00.348Z,889.3
2022-11-09T06:34:00.556Z,889.3
2022-11-09T06:35:00.313Z,889.3
2022-11-09T06:36:00.306Z,889.3
2022-11-09T06:37:00.297Z,889.3
2022-11-09T06:38:00.360Z,889.3
2022-11-09T06:39:00.288Z,889.3
2022-11-09T06:40:00.596Z,889.3
2022-11-09T06:41:00.335Z,889.3
2022-11-09T06:42:00.316Z,889.3
2022-11-09T06:43:00.309Z,889.3
2022-11-09T06:44:00.281Z,889.3
2022-11-09T06:45:00.310Z,889.3
2022-11-09T06:46:00.436Z,889.3
2022-11-09T06:47:00.448Z,889.3
2022-11-09T06:48:00.326Z,889.3
2022-11-09T06:49:00.403Z,889.3
2022-11-09T06:50:00.360Z,889.3
2022-11-09T06:51:00.312Z,889.3
2022-11-09T06:52:00.526Z,889.3
2022-11-09T06:53:00.359Z,889.3
2022-11-09T06:54:00.293Z,889.3
2022-11-09T06:55:00.377Z,889.3
2022-11-09T06:56:00.291Z,889.3
2022-11-09T06:57:00.322Z,889.3
2022-11-09T06:58:00.594Z,889.3
2022-11-09T06:59:00.327Z,889.3
2022-11-09T07:00:00.356Z,889.3
2022-11-09T07:01:00.342Z,889.3
2022-11-09T07:02:01.821Z,889.3
2022-11-09T07:03:00.323Z,889.4
2022-11-09T07:04:00.419Z,889.4
2022-11-09T07:05:00.288Z,889.3
2022-11-09T07:06:00.305Z,889.4
2022-11-09T14:08:02.366Z,887.5
2022-11-09T14:09:00.299Z,887.5
2022-11-09T14:10:00.296Z,887.5
2022-11-09T14:11:00.301Z,887.5
2022-11-09T14:12:00.322Z,887.5
2022-11-09T14:13:00.301Z,887.5
2022-11-09T14:14:03.159Z,887.5
2022-11-09T14:15:00.307Z,887.5
2022-11-09T14:16:00.295Z,887.5
2022-11-09T14:17:00.323Z,887.5
2022-11-09T14:18:00.338Z,887.5
2022-11-09T14:19:00.364Z,887.5
2022-11-09T14:20:00.436Z,887.5
2022-11-09T14:21:00.300Z,887.5
2022-11-09T14:22:00.302Z,887.5
2022-11-09T14:23:00.306Z,887.5
2022-11-09T14:24:00.475Z,887.6
2022-11-09T14:25:00.341Z,887.6
2022-11-09T14:26:00.434Z,887.6
2022-11-09T14:27:00.377Z,887.6
2022-11-09T14:28:00.393Z,887.5
2022-11-09T14:29:00.313Z,887.6
2022-11-09T14:30:00.300Z,887.6
2022-11-09T14:31:00.306Z,887.6
2022-11-09T14:32:00.530Z,887.6
2022-11-09T14:33:00.297Z,887.6
2022-11-09T14:34:00.292Z,887.6
2022-11-09T14:35:00.299Z,887.6
2022-11-09T14:36:00.293Z,887.6
2022-11-09T14:37:04.706Z,887.6
2022-11-09T14:38:00.414Z,887.6
2022-11-09T14:39:00.408Z,887.7
2022-11-09T14:40:00.430Z,887.7
2022-11-09T14:41:00.295Z,887.7
2022-11-09T14:42:00.291Z,887.7
2022-11-09T14:43:00.308Z,887.7
2022-11-09T14:44:00.513Z,887.7
2022-11-09T14:45:00.295Z,887.7
2022-11-09T14:46:00.360Z,887.7
2022-11-09T14:47:00.294Z,887.7
2022-11-09T14:48:00.299Z,887.7
2022-11-09T14:49:00.294Z,887.8
2022-11-09T14:50:00.404Z,887.8
2022-11-09T14:51:00.302Z,887.7
2022-11-09T14:52:00.293Z,887.8
2022-11-09T14:53:00.286Z,887.8
2022-11-09T14:54:00.292Z,887.8
2022-11-09T14:55:00.387Z,887.8
2022-11-09T14:56:00.515Z,887.8
2022-11-09T14:57:00.296Z,887.8
2022-11-09T14:58:00.293Z,887.8
2022-11-09T14:59:00.290Z,887.8
2022-11-09T15:00:00.292Z,887.8
2022-11-09T15:01:00.306Z,887.9
2022-11-09T15:02:00.426Z,887.9
2022-11-09T15:03:00.357Z,887.9
2022-11-09T15:04:00.369Z,887.9
2022-11-09T15:05:00.328Z,887.9
2022-11-09T15:06:00.352Z,887.9
2022-11-09T15:07:00.510Z,887.9
2022-11-09T15:08:00.681Z,887.9
2022-11-09T15:09:00.288Z,887.9
2022-11-09T15:10:00.359Z,887.9
2022-11-09T15:11:02.454Z,887.9
2022-11-09T15:12:00.324Z,888.0
2022-11-09T15:13:00.293Z,887.9
2022-11-09T15:14:00.488Z,887.9
2022-11-09T15:15:00.316Z,887.9
2022-11-09T15:16:00.285Z,887.9
2022-11-09T15:17:00.294Z,887.9
2022-11-09T15:18:00.316Z,887.9
2022-11-09T15:19:00.409Z,887.9
2022-11-09T15:20:00.514Z,887.9
2022-11-09T15:21:00.547Z,888.0
2022-11-09T15:22:00.309Z,887.9
2022-11-09T15:23:00.295Z,888.0
2022-11-09T15:24:00.289Z,888.0
2022-11-09T15:25:00.326Z,888.0
2022-11-09T15:26:00.589Z,888.0
2022-11-09T15:27:00.409Z,888.0
2022-11-09T15:28:00.293Z,888.0
2022-11-09T15:29:00.292Z,888.0
2022-11-09T15:30:00.298Z,887.9
2022-11-09T15:31:00.284Z,887.9
2022-11-09T15:32:00.475Z,887.9
2022-11-09T15:33:00.299Z,887.9
2022-11-09T15:34:00.314Z,887.9
2022-11-09T15:35:00.327Z,887.9
2022-11-09T15:36:00.302Z,887.9
2022-11-09T15:37:00.318Z,887.9
2022-11-09T15:38:00.440Z,887.9
2022-11-09T15:39:00.316Z,888.0
2022-11-09T15:40:00.328Z,888.0
2022-11-09T15:41:00.284Z,888.0
2022-11-09T15:42:00.554Z,888.0
2022-11-09T15:43:00.316Z,888.0
2022-11-09T15:44:00.427Z,888.0
2022-11-09T15:45:00.499Z,888.0
2022-11-09T15:46:00.302Z,888.0
2022-11-09T15:47:00.708Z,888.0
2022-11-09T15:48:00.286Z,888.0
2022-11-09T15:49:00.284Z,888.0
2022-11-09T15:50:00.438Z,888.0
2022-11-09T15:51:00.364Z,888.0
2022-11-09T15:52:00.282Z,888.0
2022-11-09T15:53:00.372Z,887.9
2022-11-09T15:54:00.296Z,888.0
2022-11-09T15:55:00.349Z,888.0
2022-11-09T15:56:00.727Z,888.0
2022-11-09T15:57:00.298Z,888.0
2022-11-09T15:58:01.908Z,888.0
2022-11-09T15:59:00.346Z,888.0
2022-11-09T16:00:00.291Z,888.0
2022-11-09T16:01:00.477Z,888.0
2022-11-09T16:02:00.471Z,888.0
2022-11-09T16:03:00.293Z,888.0
2022-11-09T16:04:00.311Z,888.1
2022-11-09T16:05:00.298Z,888.1
2022-11-09T16:06:00.304Z,888.0
2022-11-09T16:07:00.321Z,888.1
2022-11-09T16:08:00.413Z,888.1
2022-11-09T16:09:00.369Z,888.0
2022-11-09T16:10:00.345Z,888.0
2022-11-09T16:11:00.363Z,888.0
2022-11-09T16:12:00.298Z,888.0
2022-11-09T16:13:00.305Z,888.1
2022-11-09T16:14:00.427Z,888.1
2022-11-09T16:15:00.321Z,888.0
2022-11-09T16:16:00.302Z,888.0
2022-11-09T16:17:00.296Z,888.0
2022-11-09T16:18:00.303Z,888.1
2022-11-09T16:19:00.291Z,888.1
2022-11-09T16:20:00.409Z,888.1
2022-11-09T16:21:00.296Z,888.1
2022-11-09T16:22:00.300Z,888.1
2022-11-09T16:23:00.294Z,888.1
2022-11-09T16:24:00.288Z,888.1
2022-11-09T16:25:00.299Z,888.1
2022-11-09T16:26:00.395Z,888.1
2022-11-09T16:27:00.337Z,888.1
2022-11-09T16:28:00.469Z,888.1
2022-11-09T16:29:00.493Z,888.1
2022-11-09T16:30:00.442Z,888.1
2022-11-09T16:31:00.309Z,888.1
2022-11-09T16:32:02.440Z,888.1
2022-11-09T16:33:00.306Z,888.1
2022-11-09T16:34:00.292Z,888.1
2022-11-09T16:35:25.670Z,888.1
2022-11-09T16:36:00.352Z,888.1
2022-11-09T16:37:00.315Z,888.0
2022-11-09T16:38:00.406Z,888.1
2022-11-09T16:39:00.292Z,888.1
2022-11-09T16:40:00.325Z,888.1
2022-11-09T16:41:00.291Z,888.1
2022-11-09T16:42:00.292Z,888.1
2022-11-09T16:43:00.336Z,888.1
2022-11-09T16:44:00.411Z,888.1
2022-11-09T16:45:00.314Z,888.1
2022-11-09T16:46:02.428Z,888.1
2022-11-09T16:47:00.292Z,888.1
2022-11-09T16:48:00.297Z,888.0
2022-11-09T16:49:00.299Z,888.0
2022-11-09T16:50:00.452Z,888.0
2022-11-09T16:52:00.294Z,888.1
2022-11-09T16:53:00.287Z,888.0
2022-11-09T16:54:00.303Z,888.0
2022-11-09T16:55:00.291Z,888.1
2022-11-09T16:56:01.306Z,888.1
2022-11-09T16:57:00.319Z,888.0
2022-11-09T16:58:00.292Z,888.0
2022-11-09T16:59:00.290Z,888.0
2022-11-09T17:00:00.549Z,888.1
2022-11-09T17:01:12.327Z,888.1
2022-11-09T17:02:00.622Z,888.1
2022-11-09T17:03:00.281Z,888.1
2022-11-09T17:04:00.310Z,888.1
2022-11-09T17:05:00.304Z,888.1
2022-11-09T17:06:00.292Z,888.0
2022-11-09T17:07:00.474Z,888.1
2022-11-09T17:08:00.450Z,888.0
2022-11-09T17:09:00.308Z,888.1
2022-11-09T17:10:00.357Z,888.0
2022-11-09T17:11:00.387Z,888.1
2022-11-09T17:12:00.364Z,888.0
2022-11-09T17:13:00.355Z,888.1
2022-11-09T17:14:00.450Z,888.1
2022-11-09T17:15:00.287Z,888.1
2022-11-09T17:16:00.312Z,888.1
2022-11-09T17:17:00.328Z,888.1
2022-11-09T17:18:02.397Z,888.1
2022-11-09T17:19:00.293Z,888.1
2022-11-09T17:20:00.449Z,888.0
2022-11-09T17:21:00.323Z,888.0
2022-11-09T17:22:00.329Z,888.0
2022-11-09T17:23:00.294Z,888.0
2022-11-09T17:24:00.364Z,888.0
2022-11-09T17:25:00.291Z,888.0
2022-11-09T17:26:00.441Z,888.0
2022-11-09T17:27:00.293Z,888.0
2022-11-09T17:28:00.335Z,888.0
2022-11-09T17:29:00.365Z,888.0
2022-11-09T17:30:00.298Z,888.0
2022-11-09T17:31:00.294Z,888.0
2022-11-09T17:32:00.438Z,888.1
2022-11-09T17:33:00.295Z,888.1
2022-11-09T17:34:01.499Z,888.0
2022-11-09T17:35:00.313Z,888.0
2022-11-09T17:36:00.300Z,888.0
2022-11-09T17:37:05.252Z,888.1
2022-11-09T17:38:00.441Z,888.0
2022-11-09T17:39:00.300Z,888.0
2022-11-09T17:40:00.292Z,888.0
2022-11-09T17:41:00.289Z,888.0
2022-11-09T17:42:00.296Z,888.1
2022-11-09T17:43:00.305Z,888.0
2022-11-09T17:44:00.403Z,888.1
2022-11-09T17:45:00.293Z,888.1
2022-11-09T17:46:00.307Z,888.1
2022-11-09T17:47:00.278Z,888.1
2022-11-09T17:48:00.309Z,888.1
2022-11-09T17:49:00.553Z,888.1
2022-11-09T17:50:00.389Z,888.1
2022-11-09T17:51:00.348Z,888.1
2022-11-09T17:52:00.305Z,888.1
2022-11-09T17:53:00.316Z,888.1
2022-11-09T17:54:00.297Z,888.1
2022-11-09T17:55:00.319Z,888.1
2022-11-09T17:56:01.075Z,888.1
2022-11-09T17:57:00.489Z,888.1
2022-11-09T17:58:00.295Z,888.1
2022-11-09T17:59:00.453Z,888.1
2022-11-09T18:00:00.760Z,888.1
2022-11-09T18:01:00.801Z,888.1
2022-11-09T18:02:00.598Z,888.1
2022-11-09T18:03:00.493Z,888.1
2022-11-09T18:04:04.240Z,888.1
2022-11-09T18:05:00.291Z,888.1
2022-11-09T18:06:00.295Z,888.1
2022-11-09T18:07:00.381Z,888.1
2022-11-09T18:08:00.613Z,888.1
2022-11-09T18:09:34.471Z,888.1
2022-11-09T18:10:00.285Z,888.1
2022-11-09T18:11:00.380Z,888.1
2022-11-09T18:12:00.289Z,888.1
2022-11-09T18:13:00.294Z,888.1
2022-11-09T18:14:00.429Z,888.1
2022-11-09T18:15:00.318Z,888.1
2022-11-09T18:16:00.298Z,888.1
2022-11-09T18:17:00.304Z,888.2
2022-11-09T18:18:00.286Z,888.2
2022-11-09T18:19:00.484Z,888.2
2022-11-09T18:20:00.462Z,888.2
2022-11-09T18:21:00.293Z,888.2
2022-11-09T18:22:02.990Z,888.2
2022-11-09T18:23:00.292Z,888.2
2022-11-09T18:24:00.284Z,888.3
2022-11-09T18:25:00.300Z,888.2
2022-11-09T18:26:00.453Z,888.2
2022-11-09T18:27:00.296Z,888.2
2022-11-09T18:28:00.309Z,888.2
2022-11-09T18:29:00.327Z,888.3
2022-11-09T18:30:00.290Z,888.3
2022-11-09T18:31:00.291Z,888.2
2022-11-09T18:32:00.533Z,888.3
2022-11-09T18:33:00.285Z,888.2
2022-11-09T18:34:00.326Z,888.2
2022-11-09T18:35:02.415Z,888.3
2022-11-09T18:36:00.288Z,888.3
2022-11-09T18:37:00.298Z,888.3
2022-11-09T18:38:00.494Z,888.3
2022-11-09T18:39:00.370Z,888.2
2022-11-09T18:40:00.304Z,888.3
2022-11-09T18:41:00.366Z,888.3
2022-11-09T18:42:00.397Z,888.3
2022-11-09T18:43:00.320Z,888.3
2022-11-09T18:44:02.758Z,888.3
2022-11-09T18:45:00.360Z,888.3
2022-11-09T18:46:00.424Z,888.3
2022-11-09T18:47:05.038Z,888.3
2022-11-09T18:48:00.394Z,888.3
2022-11-09T18:49:00.333Z,888.3
2022-11-09T18:50:00.531Z,888.3
2022-11-09T18:51:00.338Z,888.3
2022-11-09T18:52:00.366Z,888.3
2022-11-09T18:53:00.387Z,888.3
2022-11-09T18:54:00.409Z,888.3
2022-11-09T18:55:00.472Z,888.3
2022-11-09T18:56:06.072Z,888.3
2022-11-09T18:57:00.445Z,888.3
2022-11-09T18:58:00.326Z,888.4
2022-11-09T18:59:00.406Z,888.4
2022-11-09T19:00:00.459Z,888.4
2022-11-09T19:01:00.564Z,888.4
2022-11-09T19:02:00.534Z,888.4
2022-11-09T19:03:00.364Z,888.4
2022-11-09T19:04:00.346Z,888.4
2022-11-09T19:05:00.334Z,888.4
2022-11-09T19:06:00.337Z,888.4
2022-11-09T19:07:00.400Z,888.5
2022-11-09T19:08:00.593Z,888.4
2022-11-09T19:09:00.315Z,888.4
2022-11-09T19:10:00.444Z,888.5
2022-11-09T19:11:00.349Z,888.4
2022-11-09T19:12:00.369Z,888.4
2022-11-09T19:13:00.377Z,888.5
2022-11-09T19:14:00.516Z,888.5
2022-11-09T19:15:00.387Z,888.4
2022-11-09T19:16:02.917Z,888.5
2022-11-09T19:17:00.417Z,888.5
2022-11-09T19:18:00.404Z,888.5
2022-11-09T19:19:00.670Z,888.5
2022-11-09T19:20:00.611Z,888.5
2022-11-09T19:21:00.317Z,888.5
2022-11-09T19:22:00.444Z,888.5
2022-11-09T19:23:00.404Z,888.5
2022-11-09T19:24:00.468Z,888.5
2022-11-09T19:25:00.410Z,888.5
2022-11-09T19:26:00.518Z,888.5
2022-11-09T19:27:00.335Z,888.5
2022-11-09T19:28:00.366Z,888.5
2022-11-09T19:29:00.427Z,888.5
2022-11-09T19:30:04.733Z,888.6
2022-11-09T19:31:00.363Z,888.5
2022-11-09T19:32:00.496Z,888.5
2022-11-09T19:33:00.303Z,888.6
2022-11-09T19:34:00.304Z,888.6
2022-11-09T19:35:00.316Z,888.6
2022-11-09T19:36:28.528Z,888.6
2022-11-09T19:37:00.320Z,888.6
2022-11-09T19:38:06.010Z,888.6
2022-11-09T19:39:00.309Z,888.6
2022-11-09T19:40:00.306Z,888.6
2022-11-09T19:41:00.318Z,888.6
2022-11-09T19:42:00.302Z,888.6
2022-11-09T19:43:00.311Z,888.6
2022-11-09T19:44:00.461Z,888.6
2022-11-09T19:45:00.305Z,888.6
2022-11-09T19:46:00.309Z,888.6
2022-11-09T19:47:00.447Z,888.6
2022-11-09T19:48:00.295Z,888.6
2022-11-09T19:49:00.302Z,888.6
2022-11-09T19:50:00.526Z,888.6
2022-11-09T19:51:00.285Z,888.6
2022-11-09T19:52:00.305Z,888.6
2022-11-09T19:53:00.332Z,888.5
2022-11-09T19:54:00.299Z,888.5
2022-11-09T19:55:00.324Z,888.5
2022-11-09T19:56:00.453Z,888.5